createdAt,value
2018-11-02T05:02:37.724Z,6.47
2018-11-02T05:05:06.174Z,5.00
2018-11-02T05:07:34.206Z,4.93
2018-11-02T05:10:02.502Z,4.10
2018-11-02T05:12:30.442Z,5.63
2018-11-02T05:14:58.549Z,3.30
2018-11-02T05:17:26.607Z,3.10
2018-11-02T05:19:54.654Z,2.87
2018-11-02T05:22:22.726Z,3.43
2018-11-02T05:24:50.789Z,2.30
2018-11-02T05:27:18.884Z,5.40
2018-11-02T05:29:46.957Z,1.70
2018-11-02T05:32:15.066Z,1.50
2018-11-02T05:34:43.213Z,3.03
2018-11-02T05:37:11.278Z,1.90
2018-11-02T05:39:39.430Z,1.23
2018-11-02T05:42:07.397Z,1.73
2018-11-02T05:44:35.569Z,1.50
2018-11-02T05:47:03.698Z,1.27
2018-11-02T05:49:31.707Z,1.53
2018-11-02T05:51:59.780Z,1.73
2018-11-02T05:54:28.287Z,1.40
2018-11-02T05:56:56.031Z,1.53
2018-11-02T05:59:24.099Z,1.73
2018-11-02T06:01:52.206Z,1.43
2018-11-02T06:04:20.251Z,2.57
2018-11-02T06:06:48.393Z,1.67
2018-11-02T06:09:16.458Z,2.10
2018-11-02T06:11:44.543Z,1.60
2018-11-02T06:14:12.631Z,1.80
2018-11-02T06:16:40.818Z,2.10
2018-11-02T06:19:08.834Z,4.97
2018-11-02T06:21:36.927Z,2.50
2018-11-02T06:24:05.750Z,3.10
2018-11-02T06:26:33.834Z,3.80
2018-11-02T06:29:01.915Z,4.20
2018-11-02T06:31:30.090Z,3.87
2018-11-02T06:33:58.154Z,4.10
2018-11-02T06:36:26.194Z,4.53
2018-11-02T06:38:54.326Z,6.40
2018-11-02T06:41:22.371Z,4.63
2018-11-02T06:43:50.760Z,7.33
2018-11-02T06:46:18.804Z,8.10
2018-11-02T06:48:47.428Z,4.60
2018-11-02T06:51:15.607Z,4.10
2018-11-02T06:53:43.731Z,4.17
2018-11-02T06:56:11.840Z,12.43
2018-11-02T06:58:39.897Z,4.37
2018-11-02T07:01:07.979Z,5.33
2018-11-02T07:03:36.055Z,4.10
2018-11-02T07:06:04.130Z,5.67
2018-11-02T07:08:32.324Z,4.47
2018-11-02T07:11:00.315Z,5.60
2018-11-02T07:13:28.414Z,7.30
2018-11-02T07:15:56.559Z,5.43
2018-11-02T07:18:24.623Z,5.17
2018-11-02T07:20:52.699Z,5.40
2018-11-02T07:23:20.925Z,5.03
2018-11-02T07:25:49.015Z,5.83
2018-11-02T07:28:17.091Z,6.30
2018-11-02T07:30:45.218Z,5.50
2018-11-02T07:33:14.555Z,5.80
2018-11-02T07:35:42.618Z,4.80
2018-11-02T07:38:10.690Z,5.70
2018-11-02T07:40:38.814Z,6.03
2018-11-02T07:43:06.901Z,6.87
2018-11-02T07:45:34.991Z,5.60
2018-11-02T07:48:03.098Z,6.87
2018-11-02T07:50:32.858Z,5.83
2018-11-02T07:53:01.072Z,6.73
2018-11-02T07:55:38.804Z,6.57
2018-11-02T07:58:17.524Z,6.30
2018-11-02T08:00:55.962Z,6.53
2018-11-02T08:03:33.604Z,7.37
2018-11-02T08:06:12.256Z,6.93
2018-11-02T08:08:40.334Z,10.97
2018-11-02T08:11:08.487Z,7.60
2018-11-02T08:13:36.544Z,7.20
2018-11-02T08:16:04.662Z,8.50
2018-11-02T08:18:32.753Z,9.70
2018-11-02T08:21:00.821Z,7.57
2018-11-02T08:23:28.915Z,7.67
2018-11-02T08:25:56.967Z,8.33
2018-11-02T08:28:25.116Z,9.87
2018-11-02T08:30:53.256Z,7.90
2018-11-02T08:33:21.381Z,11.97
2018-11-02T08:35:49.495Z,8.53
2018-11-02T08:38:20.870Z,9.03
2018-11-02T08:40:48.965Z,8.63
2018-11-02T08:43:17.070Z,12.70
2018-11-02T08:45:45.281Z,9.03
2018-11-02T08:48:13.457Z,8.00
2018-11-02T08:50:41.596Z,7.47
2018-11-02T08:53:09.694Z,10.93
2018-11-02T08:55:37.815Z,10.90
2018-11-02T08:58:06.024Z,11.93
2018-11-02T09:00:34.085Z,10.37
2018-11-02T09:03:02.239Z,9.43
2018-11-02T09:05:30.372Z,11.00
2018-11-02T09:07:58.476Z,10.77
2018-11-02T09:10:26.543Z,9.23
2018-11-02T09:12:54.711Z,9.57
2018-11-02T09:15:22.816Z,7.90
2018-11-02T09:17:50.895Z,8.63
2018-11-02T09:20:18.966Z,7.80
2018-11-02T09:22:47.165Z,7.67
2018-11-02T09:25:15.290Z,8.23
2018-11-02T09:27:43.359Z,8.53
2018-11-02T09:30:14.374Z,12.57
2018-11-02T09:32:42.744Z,8.40
2018-11-02T09:35:10.922Z,7.90
2018-11-02T09:37:39.055Z,11.43
2018-11-02T09:40:08.283Z,9.17
2018-11-02T09:42:36.486Z,21.10
2018-11-02T09:45:04.867Z,29.00
2018-11-02T09:47:32.950Z,16.27
2018-11-02T09:50:01.316Z,8.40
2018-11-02T09:52:29.590Z,9.20
2018-11-02T09:54:57.686Z,7.17
2018-11-02T09:57:25.783Z,7.93
2018-11-02T09:59:55.062Z,7.50
2018-11-02T10:02:23.147Z,6.30
2018-11-02T10:04:51.225Z,9.00
2018-11-02T10:07:19.361Z,9.33
2018-11-02T10:09:47.454Z,7.10
2018-11-02T10:12:15.538Z,11.60
2018-11-02T10:14:43.656Z,6.63
2018-11-02T10:17:11.754Z,9.87
2018-11-02T10:19:39.851Z,10.97
2018-11-02T10:22:07.921Z,9.40
2018-11-02T10:24:36.031Z,10.13
2018-11-02T10:27:04.150Z,12.30
2018-11-02T10:29:32.232Z,10.60
2018-11-02T10:32:00.363Z,9.07
2018-11-02T10:34:28.490Z,13.07
2018-11-02T10:36:56.969Z,11.70
2018-11-02T10:39:25.164Z,14.13
2018-11-02T10:41:55.379Z,11.43
2018-11-02T10:44:33.296Z,13.50
2018-11-02T10:47:01.430Z,13.97
2018-11-02T10:49:29.624Z,14.00
2018-11-02T10:51:57.642Z,11.20
2018-11-02T10:54:25.747Z,8.33
2018-11-02T10:56:53.808Z,9.90
2018-11-02T10:59:21.902Z,11.27
2018-11-02T11:01:55.285Z,7.40
2018-11-02T11:04:23.385Z,6.87
2018-11-02T11:06:52.519Z,6.50
2018-11-02T11:09:20.633Z,7.80
2018-11-02T11:11:48.889Z,7.33
2018-11-02T11:14:16.854Z,5.63
2018-11-02T11:16:44.957Z,7.23
2018-11-02T11:19:13.058Z,6.60
2018-11-02T11:21:42.034Z,6.90
2018-11-02T11:24:10.119Z,8.33
2018-11-02T11:26:38.954Z,10.00
2018-11-02T11:29:07.216Z,7.63
2018-11-02T11:31:35.535Z,8.50
2018-11-02T11:34:04.007Z,9.50
2018-11-02T11:36:32.074Z,11.60
2018-11-02T11:39:00.176Z,7.53
2018-11-02T11:41:28.248Z,6.40
2018-11-02T11:43:56.322Z,6.07
2018-11-02T11:46:24.434Z,8.97
2018-11-02T11:48:52.626Z,5.73
2018-11-02T11:51:20.636Z,9.20
2018-11-02T11:53:48.770Z,5.00
2018-11-02T11:56:16.838Z,5.90
2018-11-02T11:58:44.905Z,6.17
2018-11-02T12:01:13.014Z,7.70
2018-11-02T12:03:41.087Z,9.30
2018-11-02T12:06:09.163Z,8.43
2018-11-02T12:08:37.265Z,9.10
2018-11-02T12:11:05.703Z,7.90
2018-11-02T12:13:33.770Z,11.43
2018-11-02T12:16:02.014Z,8.17
2018-11-02T12:18:30.023Z,7.67
2018-11-02T12:20:58.083Z,9.73
2018-11-02T12:23:26.309Z,8.13
2018-11-02T12:25:54.327Z,13.80
2018-11-02T12:28:22.397Z,8.00
2018-11-02T12:30:50.472Z,16.13
2018-11-02T12:33:18.571Z,8.07
2018-11-02T12:35:46.668Z,9.70
2018-11-02T12:38:14.732Z,9.23
2018-11-02T12:40:42.827Z,12.47
2018-11-02T12:43:11.013Z,9.07
2018-11-02T12:45:39.045Z,7.23
2018-11-02T12:48:07.182Z,9.30
2018-11-02T12:50:35.312Z,7.80
2018-11-02T12:53:03.271Z,8.87
2018-11-02T12:55:31.319Z,9.37
2018-11-02T12:57:59.443Z,13.43
2018-11-02T13:00:28.494Z,7.03
2018-11-02T13:02:56.698Z,13.70
2018-11-02T13:05:24.816Z,9.53
2018-11-02T13:07:52.941Z,12.43
2018-11-02T13:10:21.902Z,15.10
2018-11-02T13:12:51.089Z,10.90
2018-11-02T13:15:21.571Z,11.20
2018-11-02T13:17:50.082Z,11.57
2018-11-02T13:20:18.243Z,13.10
2018-11-02T13:22:47.314Z,11.43
2018-11-02T13:25:18.358Z,11.60
2018-11-02T13:27:47.056Z,9.70
2018-11-02T13:30:15.262Z,13.93
2018-11-02T13:32:43.233Z,11.70
2018-11-02T13:35:13.740Z,11.67
2018-11-02T13:37:42.570Z,10.33
2018-11-02T13:40:11.742Z,16.47
2018-11-02T13:42:40.471Z,11.90
2018-11-02T13:45:10.071Z,17.60
2018-11-02T13:47:38.242Z,12.03
2018-11-02T13:50:06.713Z,15.43
2018-11-02T13:52:34.828Z,12.57
2018-11-02T13:55:02.991Z,11.23
2018-11-02T13:57:31.058Z,11.00
2018-11-02T13:59:59.186Z,11.43
2018-11-02T14:02:27.256Z,14.77
2018-11-02T14:04:55.358Z,11.30
2018-11-02T14:07:23.661Z,9.03
2018-11-02T14:09:51.758Z,11.83
2018-11-02T14:12:19.829Z,12.33
2018-11-02T14:14:47.906Z,14.57
2018-11-02T14:17:17.555Z,14.60
2018-11-02T14:19:45.619Z,15.63
2018-11-02T14:22:13.703Z,15.10
2018-11-02T14:24:41.794Z,15.10
2018-11-02T14:27:09.880Z,13.70
2018-11-02T14:29:38.152Z,13.90
2018-11-02T14:32:06.130Z,12.40
2018-11-02T14:34:34.191Z,17.50
2018-11-02T14:37:02.269Z,13.33
2018-11-02T14:39:30.357Z,13.07
2018-11-02T14:41:58.448Z,11.20
2018-11-02T14:44:26.529Z,12.90
2018-11-02T14:46:54.621Z,14.07
2018-11-02T14:49:22.677Z,13.57
2018-11-02T14:51:50.810Z,12.97
2018-11-02T14:54:18.885Z,15.27
2018-11-02T14:56:46.949Z,10.73
2018-11-02T14:59:15.026Z,10.20
2018-11-02T15:01:43.073Z,9.90
2018-11-02T15:04:11.264Z,11.07
2018-11-02T15:06:39.322Z,14.77
2018-11-02T15:09:10.430Z,10.47
2018-11-02T15:11:38.563Z,13.80
2018-11-02T15:14:06.767Z,30.17
2018-11-02T15:16:34.838Z,35.40
2018-11-02T15:19:03.046Z,18.13
2018-11-02T15:21:31.102Z,15.83
2018-11-02T15:23:59.181Z,11.57
2018-11-02T15:26:27.414Z,16.60
2018-11-02T15:28:55.412Z,12.63
2018-11-02T15:31:23.495Z,11.50
2018-11-02T15:33:51.571Z,12.27
2018-11-02T15:36:19.684Z,16.73
2018-11-02T15:38:47.765Z,15.83
2018-11-02T15:41:16.052Z,14.50
2018-11-02T15:43:44.118Z,16.07
2018-11-02T15:46:13.506Z,13.50
2018-11-02T15:48:41.818Z,17.33
2018-11-02T15:51:09.884Z,17.80
2018-11-02T15:53:38.055Z,20.80
2018-11-02T15:56:06.406Z,18.77
2018-11-02T15:58:34.499Z,14.40
2018-11-02T16:01:02.628Z,17.27
2018-11-02T16:03:30.737Z,18.00
2018-11-02T16:05:58.931Z,20.63
2018-11-02T16:08:26.999Z,23.40
2018-11-02T16:10:55.123Z,16.30
2018-11-02T16:13:23.210Z,15.70
2018-11-02T16:15:51.278Z,19.03
2018-11-02T16:18:19.359Z,18.50
2018-11-02T16:20:47.419Z,15.17
2018-11-02T16:23:15.504Z,13.23
2018-11-02T16:25:43.574Z,18.67
2018-11-02T16:28:11.691Z,17.50
2018-11-02T16:30:39.767Z,15.50
2018-11-02T16:33:07.846Z,15.60
2018-11-02T16:35:35.942Z,16.73
2018-11-02T16:38:04.058Z,16.00
2018-11-02T16:40:32.150Z,13.63
2018-11-02T16:43:00.241Z,29.10
2018-11-02T16:45:28.338Z,21.87
2018-11-02T16:47:56.480Z,17.73
2018-11-02T16:50:24.493Z,19.43
2018-11-02T16:52:52.769Z,22.07
2018-11-02T16:55:20.919Z,23.53
2018-11-02T16:57:49.076Z,20.33
2018-11-02T17:00:19.571Z,24.70
2018-11-02T17:02:48.614Z,18.63
2018-11-02T17:05:16.934Z,18.30
2018-11-02T17:07:46.768Z,19.30
2018-11-02T17:10:15.512Z,20.83
2018-11-02T17:12:44.021Z,17.30
2018-11-02T17:15:13.039Z,25.67
2018-11-02T17:17:41.187Z,20.17
2018-11-02T17:20:15.554Z,24.47
2018-11-02T17:22:43.630Z,20.13
2018-11-02T17:25:12.097Z,23.50
2018-11-02T17:27:40.310Z,16.57
2018-11-02T17:30:10.758Z,21.83
2018-11-02T17:32:38.914Z,21.20
2018-11-02T17:35:07.135Z,24.97
2018-11-02T17:37:35.274Z,20.60
2018-11-02T17:40:03.914Z,23.77
2018-11-02T17:42:32.001Z,25.67
2018-11-02T17:45:00.438Z,23.13
2018-11-02T17:47:28.534Z,24.67
2018-11-02T17:49:56.719Z,28.40
2018-11-02T17:52:25.401Z,23.17
2018-11-02T17:54:56.359Z,24.50
2018-11-02T17:57:24.442Z,24.87
2018-11-02T17:59:52.499Z,25.03
2018-11-02T18:02:20.591Z,23.30
2018-11-02T18:04:49.364Z,29.60
2018-11-02T18:07:17.437Z,32.63
2018-11-02T18:09:45.539Z,37.30
2018-11-02T18:12:13.695Z,36.20
2018-11-02T18:14:42.806Z,28.80
2018-11-02T18:17:10.914Z,34.97
2018-11-02T18:19:38.986Z,26.93
2018-11-02T18:22:07.156Z,32.93
2018-11-02T18:24:35.327Z,28.20
2018-11-02T18:27:03.291Z,21.07
2018-11-02T18:29:31.363Z,20.30
2018-11-02T18:31:59.571Z,20.50
2018-11-02T18:34:27.664Z,23.20
2018-11-02T18:36:55.731Z,21.53
2018-11-02T18:39:23.875Z,23.13
2018-11-02T18:41:51.925Z,17.80
2018-11-02T18:44:20.039Z,16.43
2018-11-02T18:46:48.213Z,19.70
2018-11-02T18:49:16.295Z,19.83
2018-11-02T18:51:44.398Z,17.40
2018-11-02T18:54:12.623Z,19.43
2018-11-02T18:56:40.727Z,16.80
2018-11-02T18:59:09.534Z,12.23
2018-11-02T19:01:37.676Z,15.20
2018-11-02T19:04:06.014Z,17.67
2018-11-02T19:06:34.082Z,18.30
2018-11-02T19:09:02.227Z,18.17
2018-11-02T19:11:30.346Z,12.80
2018-11-02T19:13:58.401Z,15.67
2018-11-02T19:16:27.519Z,15.17
2018-11-02T19:18:55.629Z,16.20
2018-11-02T19:21:23.779Z,13.77
2018-11-02T19:23:51.830Z,12.23
2018-11-02T19:26:19.924Z,10.60
2018-11-02T19:28:48.082Z,10.97
2018-11-02T19:31:16.162Z,13.33
2018-11-02T19:33:44.250Z,11.30
2018-11-02T19:36:12.373Z,12.53
2018-11-02T19:38:40.512Z,13.17
2018-11-02T19:41:08.522Z,9.70
2018-11-02T19:43:36.643Z,9.50
2018-11-02T19:46:05.232Z,10.40
2018-11-02T19:48:34.433Z,12.87
2018-11-02T19:51:02.599Z,19.20
2018-11-02T19:53:30.774Z,14.30
2018-11-02T19:55:58.899Z,11.10
2018-11-02T19:58:27.037Z,8.40
2018-11-02T20:00:55.201Z,12.83
2018-11-02T20:03:23.364Z,11.97
2018-11-02T20:05:51.459Z,10.80
2018-11-02T20:08:19.551Z,14.03
2018-11-02T20:10:47.675Z,11.87
2018-11-02T20:13:15.775Z,12.87
2018-11-02T20:15:43.890Z,9.47
2018-11-02T20:18:11.962Z,15.77
2018-11-02T20:20:40.039Z,8.80
2018-11-02T20:23:08.422Z,12.97
2018-11-02T20:25:36.526Z,8.63
2018-11-02T20:28:04.752Z,14.00
2018-11-02T20:30:34.916Z,9.47
2018-11-02T20:33:03.023Z,11.07
2018-11-02T20:35:31.101Z,9.00
2018-11-02T20:37:59.174Z,14.07
2018-11-02T20:40:27.300Z,12.00
2018-11-02T20:42:55.381Z,16.00
2018-11-02T20:45:23.573Z,12.37
2018-11-02T20:47:53.134Z,14.50
2018-11-02T20:50:21.226Z,15.50
2018-11-02T20:52:49.672Z,13.30
2018-11-02T20:55:18.055Z,13.47
2018-11-02T20:57:46.179Z,13.70
2018-11-02T21:00:15.508Z,17.20
2018-11-02T21:02:44.043Z,7.97
2018-11-02T21:05:13.175Z,9.43
2018-11-02T21:07:41.561Z,13.50
2018-11-02T21:10:12.053Z,12.07
2018-11-02T21:12:40.106Z,9.23
2018-11-02T21:15:10.430Z,9.20
2018-11-02T21:17:38.682Z,8.17
2018-11-02T21:20:09.187Z,9.97
2018-11-02T21:22:37.302Z,9.60
2018-11-02T21:25:06.341Z,11.27
2018-11-02T21:27:34.472Z,10.70
2018-11-02T21:30:02.713Z,14.67
2018-11-02T21:32:30.855Z,13.03
2018-11-02T21:34:58.947Z,14.07
2018-11-02T21:37:27.036Z,9.60
2018-11-02T21:39:55.187Z,11.73
2018-11-02T21:42:23.295Z,9.00
2018-11-02T21:44:51.835Z,8.33
2018-11-02T21:47:20.025Z,7.30
2018-11-02T21:49:48.179Z,9.17
2018-11-02T21:52:16.231Z,7.40
2018-11-02T21:54:44.344Z,13.03
2018-11-02T21:57:12.526Z,12.87
2018-11-02T21:59:40.575Z,7.93
